Time;durP1;ratioP1;P1;durP2;ratioP2;P2;SDS_P1;SDS_P2;PMS_P1;PMS_P2;Temp;Humidity;BMP_temperature;BMP_pressure;BME280_temperature;BME280_humidity;BME280_pressure;Samples;Min_cycle;Max_cycle;Signal;HPM_P1;HPM_P2
2023/06/26 00:03:23;;;;;;;0.63;0.30;;;;;;;28.74;100.00;101233.34;10385622;28;20046;-82
2023/06/26 00:08:25;;;;;;;0.35;0.32;;;;;;;28.81;100.00;101226.84;10380932;28;20440;-82
2023/06/26 00:13:27;;;;;;;0.25;0.13;;;;;;;28.48;100.00;101224.75;10377493;28;20049;-82
2023/06/26 00:18:29;;;;;;;3.13;0.70;;;;;;;28.72;100.00;101216.66;10385262;28;20042;-82
2023/06/26 00:23:32;;;;;;;0.10;0.10;;;;;;;28.32;100.00;101219.28;10380251;28;20069;-81
2023/06/26 00:28:33;;;;;;;0.13;0.10;;;;;;;28.63;100.00;101214.41;10380345;28;20053;-81
2023/06/26 00:33:35;;;;;;;0.00;0.00;;;;;;;28.60;100.00;101199.47;10385609;28;20069;-81
2023/06/26 00:38:36;;;;;;;0.20;0.20;;;;;;;28.40;100.00;101203.06;10373499;28;20045;-81
2023/06/26 00:43:40;;;;;;;0.47;0.20;;;;;;;28.24;100.00;101196.69;10374734;28;20500;-81
2023/06/26 00:48:46;;;;;;;0.17;0.15;;;;;;;28.45;100.00;101185.16;10373525;28;20065;-82
2023/06/26 00:53:48;;;;;;;0.13;0.13;;;;;;;28.91;100.00;101178.69;10381031;28;20046;-82
2023/06/26 00:58:52;;;;;;;0.30;0.13;;;;;;;27.87;100.00;101169.97;10370703;28;20046;-82
2023/06/26 01:03:53;;;;;;;1.75;0.38;;;;;;;28.16;100.00;101175.84;10369439;28;20112;-82
2023/06/26 01:08:55;;;;;;;0.50;0.30;;;;;;;28.43;100.00;101164.94;10347422;28;20416;-83
2023/06/26 01:14:01;;;;;;;0.40;0.40;;;;;;;28.14;100.00;101175.91;10366840;28;20501;-85
2023/06/26 01:19:08;;;;;;;0.47;0.45;;;;;;;28.27;100.00;101159.47;10366516;28;20054;-82
2023/06/26 01:24:20;;;;;;;0.17;0.17;;;;;;;27.98;100.00;101156.28;10370913;28;20412;-82
2023/06/26 01:29:25;;;;;;;0.20;0.20;;;;;;;27.82;100.00;101153.44;10367513;28;20042;-81
2023/06/26 01:34:27;;;;;;;1.02;0.50;;;;;;;27.94;100.00;101152.06;10373624;28;20061;-81
2023/06/26 01:39:29;;;;;;;0.85;0.43;;;;;;;27.89;100.00;101154.06;10368527;28;20061;-83
2023/06/26 01:44:36;;;;;;;0.65;0.43;;;;;;;27.43;100.00;101157.69;10350160;28;20045;-82
2023/06/26 01:49:49;;;;;;;1.15;0.75;;;;;;;27.18;100.00;101158.66;10370527;28;20321;-82
2023/06/26 01:54:58;;;;;;;1.25;0.80;;;;;;;27.36;100.00;101156.19;10364380;28;20042;-82
2023/06/26 02:00:01;;;;;;;1.85;1.08;;;;;;;27.54;100.00;101149.31;10390359;28;20050;-82
2023/06/26 02:05:14;;;;;;;0.52;0.43;;;;;;;27.96;100.00;101160.81;10375289;28;20125;-81
2023/06/26 02:10:15;;;;;;;2.00;0.50;;;;;;;27.60;100.00;101158.75;10356615;28;20141;-82
2023/06/26 02:15:17;;;;;;;0.55;0.50;;;;;;;27.60;100.00;101158.75;10379923;28;20057;-81
2023/06/26 02:20:18;;;;;;;0.70;0.43;;;;;;;27.66;100.00;101174.41;10382757;28;20112;-81
2023/06/26 02:25:20;;;;;;;0.50;0.32;;;;;;;27.17;100.00;101178.09;10360759;28;20050;-82
2023/06/26 02:30:22;;;;;;;0.20;0.20;;;;;;;26.90;100.00;101180.00;10382581;28;20041;-81
2023/06/26 02:35:23;;;;;;;1.25;0.73;;;;;;;27.12;100.00;101180.06;10376834;28;20045;-81
2023/06/26 02:40:25;;;;;;;1.42;0.88;;;;;;;27.99;100.00;101182.72;10369777;28;20041;-82
2023/06/26 02:45:27;;;;;;;2.17;0.68;;;;;;;27.68;100.00;101199.00;10348652;28;20112;-84
2023/06/26 02:50:29;;;;;;;0.32;0.32;;;;;;;28.09;100.00;101188.50;10344448;28;20420;-81
2023/06/26 02:55:38;;;;;;;;;;;;;;;28.33;100.00;101185.72;10366506;28;20042;-82
2023/06/26 03:00:41;;;;;;;0.40;0.40;;;;;;;28.21;100.00;101188.88;10366435;28;20000;-82
2023/06/26 03:05:48;;;;;;;1.35;0.70;;;;;;;27.78;100.00;101197.72;10374791;28;20030;-81
2023/06/26 03:10:50;;;;;;;0.47;0.35;;;;;;;28.35;100.00;101194.44;10372330;28;20057;-81
2023/06/26 03:15:51;;;;;;;1.42;0.93;;;;;;;28.36;100.00;101195.31;10372716;28;20080;-80
2023/06/26 03:20:54;;;;;;;0.82;0.35;;;;;;;28.16;100.00;101208.50;10372894;28;20041;-81
2023/06/26 03:25:56;;;;;;;0.30;0.28;;;;;;;28.01;100.00;101211.78;10371310;28;20038;-81
2023/06/26 03:31:10;;;;;;;1.00;0.60;;;;;;;28.06;100.00;101209.81;10356252;28;20050;-81
2023/06/26 03:36:11;;;;;;;0.47;0.47;;;;;;;27.84;100.00;101223.94;10370236;28;20540;-81
2023/06/26 03:41:13;;;;;;;2.70;1.05;;;;;;;28.24;100.00;101218.75;10365660;28;20034;-80
2023/06/26 03:46:15;;;;;;;1.20;0.63;;;;;;;28.10;100.00;101227.31;10372849;28;20045;-80
2023/06/26 03:51:17;;;;;;;0.73;0.47;;;;;;;28.21;100.00;101228.59;10374231;28;20053;-82
2023/06/26 03:56:19;;;;;;;0.47;0.38;;;;;;;28.20;100.00;101234.81;10373405;28;20041;-80
2023/06/26 04:01:21;;;;;;;0.32;0.28;;;;;;;27.81;100.00;101242.56;10376419;28;20053;-84
2023/06/26 04:06:23;;;;;;;1.35;0.40;;;;;;;28.00;100.00;101253.25;10367450;28;20062;-81
2023/06/26 04:11:26;;;;;;;0.05;0.05;;;;;;;27.79;100.00;101252.38;10373587;28;20050;-81
2023/06/26 04:16:28;;;;;;;0.63;0.40;;;;;;;27.83;100.00;101239.88;10375100;28;20042;-80
2023/06/26 04:21:30;;;;;;;0.35;0.20;;;;;;;27.43;100.00;101246.78;10375392;28;20038;-80
2023/06/26 04:26:32;;;;;;;1.00;0.88;;;;;;;27.79;100.00;101248.84;10376137;28;20065;-81
2023/06/26 04:31:34;;;;;;;0.22;0.22;;;;;;;27.92;100.00;101255.41;10374059;28;20038;-80
2023/06/26 04:36:38;;;;;;;0.70;0.43;;;;;;;27.73;100.00;101263.22;10375638;28;20084;-80
2023/06/26 04:41:40;;;;;;;0.25;0.25;;;;;;;27.87;100.00;101257.34;10375848;28;20116;-80
2023/06/26 04:46:42;;;;;;;0.25;0.20;;;;;;;27.63;100.00;101269.81;10356936;28;20076;-80
2023/06/26 04:51:43;;;;;;;0.85;0.40;;;;;;;27.11;100.00;101273.53;10376667;28;20095;-81
2023/06/26 04:56:47;;;;;;;0.30;0.30;;;;;;;27.13;100.00;101282.28;10382484;28;20038;-81
2023/06/26 05:01:48;;;;;;;0.63;0.45;;;;;;;27.61;100.00;101299.00;10368028;28;20088;-83
2023/06/26 05:06:50;;;;;;;1.75;1.05;;;;;;;27.55;100.00;101294.78;10379370;28;20060;-83
2023/06/26 05:11:51;;;;;;;0.47;0.40;;;;;;;27.67;100.00;101297.84;10374094;28;20103;-83
2023/06/26 05:16:53;;;;;;;0.43;0.38;;;;;;;27.40;100.00;101305.94;10363085;28;20045;-82
2023/06/26 05:21:55;;;;;;;0.63;0.60;;;;;;;27.70;100.00;101308.34;10376137;28;20092;-82
2023/06/26 05:26:57;;;;;;;0.65;0.30;;;;;;;27.73;100.00;101313.53;10360783;28;20046;-82
2023/06/26 05:31:59;;;;;;;0.82;0.38;;;;;;;27.57;100.00;101315.88;10382696;28;20045;-82
2023/06/26 05:37:01;;;;;;;0.17;0.10;;;;;;;27.45;100.00;101322.53;10376821;28;20049;-83
2023/06/26 05:42:03;;;;;;;0.38;0.20;;;;;;;27.67;100.00;101325.22;10367694;28;20050;-83
2023/06/26 05:47:05;;;;;;;1.98;0.47;;;;;;;27.64;100.00;101329.75;10365344;28;20052;-83
2023/06/26 05:52:07;;;;;;;0.05;0.05;;;;;;;27.39;100.00;101335.97;10372524;28;20068;-82
2023/06/26 05:57:09;;;;;;;0.08;0.08;;;;;;;27.45;100.00;101341.03;10369566;28;20139;-85
2023/06/26 06:02:12;;;;;;;0.60;0.13;;;;;;;28.06;100.00;101344.88;10375705;28;20049;-84
2023/06/26 06:07:14;;;;;;;1.75;0.95;;;;;;;29.02;100.00;101358.53;10367061;28;20037;-83
2023/06/26 06:12:15;;;;;;;0.50;0.38;;;;;;;28.36;100.00;101363.06;10365309;28;20049;-83
2023/06/26 06:17:17;;;;;;;0.13;0.13;;;;;;;27.82;100.00;101376.66;10371487;28;20479;-84
2023/06/26 06:22:19;;;;;;;0.20;0.20;;;;;;;27.97;100.00;101379.63;10352958;28;20057;-83
2023/06/26 06:27:20;;;;;;;0.22;0.22;;;;;;;27.78;100.00;101390.97;10364782;28;20046;-81
2023/06/26 06:32:22;;;;;;;0.65;0.30;;;;;;;28.01;100.00;101400.63;10377435;28;20056;-82
2023/06/26 06:37:23;;;;;;;0.00;0.00;;;;;;;27.85;100.00;101403.03;10377998;28;20056;-84
2023/06/26 06:42:25;;;;;;;1.48;0.52;;;;;;;28.24;100.00;101416.56;10365626;28;20050;-81
2023/06/26 06:47:27;;;;;;;0.38;0.25;;;;;;;28.36;100.00;101425.81;10384016;28;20038;-81
2023/06/26 06:52:28;;;;;;;0.50;0.50;;;;;;;28.73;100.00;101445.53;10368918;28;20122;-81
2023/06/26 06:57:30;;;;;;;0.10;0.10;;;;;;;29.13;100.00;101433.19;10373082;28;20046;-84
2023/06/26 07:02:31;;;;;;;0.32;0.32;;;;;;;29.37;100.00;101433.94;10378162;28;20056;-84
2023/06/26 07:07:34;;;;;;;0.32;0.32;;;;;;;29.97;100.00;101427.69;10377173;28;20038;-82
2023/06/26 07:12:37;;;;;;;0.20;0.20;;;;;;;30.01;100.00;101425.72;10379159;28;20061;-83
2023/06/26 07:17:39;;;;;;;0.30;0.20;;;;;;;29.41;100.00;101440.81;10368803;28;20042;-83
2023/06/26 07:22:42;;;;;;;0.10;0.10;;;;;;;30.26;100.00;101453.75;10381346;28;20072;-83
2023/06/26 07:27:44;;;;;;;0.30;0.10;;;;;;;29.36;100.00;101456.09;10379768;28;20057;-84
2023/06/26 07:32:46;;;;;;;0.03;0.00;;;;;;;30.24;100.00;101461.81;10378441;28;20088;-85
2023/06/26 07:37:47;;;;;;;1.08;0.85;;;;;;;29.73;100.00;101470.34;10379662;28;20513;-82
2023/06/26 07:42:50;;;;;;;0.47;0.43;;;;;;;30.55;100.00;101473.63;10378201;28;20092;-82
2023/06/26 07:47:51;;;;;;;0.30;0.22;;;;;;;30.43;100.00;101474.19;10357647;28;20060;-83
2023/06/26 07:52:53;;;;;;;0.10;0.10;;;;;;;29.70;100.00;101489.06;10388417;28;20520;-83
2023/06/26 07:57:55;;;;;;;1.00;0.82;;;;;;;29.84;100.00;101488.44;10380683;28;20045;-83
2023/06/26 08:02:56;;;;;;;0.10;0.10;;;;;;;29.52;100.00;101495.22;10379640;28;20053;-82
2023/06/26 08:07:58;;;;;;;0.10;0.10;;;;;;;29.44;100.00;101504.41;10388850;28;20045;-83
2023/06/26 08:13:00;;;;;;;0.35;0.20;;;;;;;29.60;100.00;101503.69;10386035;28;20498;-83
2023/06/26 08:18:01;;;;;;;0.10;0.10;;;;;;;30.57;100.00;101495.66;10381667;28;20038;-83
2023/06/26 08:23:04;;;;;;;0.20;0.20;;;;;;;29.92;100.00;101509.34;10381667;28;20057;-82
2023/06/26 08:28:05;;;;;;;0.28;0.25;;;;;;;29.27;100.00;101517.50;10386923;28;20045;-81
2023/06/26 08:33:12;;;;;;;0.52;0.30;;;;;;;29.12;100.00;101527.84;10373555;28;20249;-80
2023/06/26 08:38:13;;;;;;;0.50;0.32;;;;;;;30.25;100.00;101529.09;10377256;28;20045;-82
2023/06/26 08:43:15;;;;;;;0.65;0.47;;;;;;;29.43;100.00;101525.66;10375062;28;20046;-82
2023/06/26 08:48:17;;;;;;;0.10;0.00;;;;;;;28.74;100.00;101535.59;10374925;28;20050;-83
2023/06/26 08:53:41;;;;;;;0.05;0.05;;;;;;;31.15;100.00;101533.63;10379174;28;20046;-84
2023/06/26 08:58:45;;;;;;;0.15;0.15;;;;;;;31.44;100.00;101549.88;10372879;28;20163;-81
2023/06/26 09:03:47;;;;;;;0.25;0.20;;;;;;;29.28;100.00;101546.59;10376061;28;20420;-81
2023/06/26 09:08:48;;;;;;;0.10;0.10;;;;;;;28.75;100.00;101547.94;10377896;28;20061;-84
2023/06/26 09:13:51;;;;;;;2.53;0.50;;;;;;;29.80;100.00;101549.72;10382017;28;20167;-84
2023/06/26 09:18:53;;;;;;;0.63;0.20;;;;;;;31.14;100.00;101543.41;10378788;28;20386;-85
2023/06/26 09:23:54;;;;;;;0.43;0.22;;;;;;;30.26;100.00;101554.75;10376330;28;20045;-82
2023/06/26 09:28:57;;;;;;;0.22;0.13;;;;;;;29.08;100.00;101566.03;10385954;28;20057;-82
2023/06/26 09:33:59;;;;;;;0.75;0.43;;;;;;;28.73;100.00;101573.63;10368546;28;20038;-82
2023/06/26 09:39:04;;;;;;;0.20;0.20;;;;;;;28.24;100.00;101584.31;10373041;28;20049;-83
2023/06/26 09:44:07;;;;;;;0.20;0.20;;;;;;;29.10;100.00;101584.53;10383925;28;20101;-83
2023/06/26 09:49:11;;;;;;;0.10;0.10;;;;;;;30.18;100.00;101579.03;10380759;28;20075;-84
2023/06/26 09:54:16;;;;;;;0.45;0.30;;;;;;;30.88;100.00;101570.44;10379088;28;20033;-81
2023/06/26 09:59:18;;;;;;;0.73;0.65;;;;;;;31.21;100.00;101559.94;10375204;28;20049;-82
2023/06/26 10:04:21;;;;;;;0.88;0.10;;;;;;;29.84;98.07;101585.81;10373327;28;20045;-83
2023/06/26 10:09:24;;;;;;;0.93;0.40;;;;;;;29.91;100.00;101596.16;10371691;28;20582;-81
2023/06/26 10:14:35;;;;;;;0.00;0.00;;;;;;;30.05;100.00;101584.88;10369613;28;20034;-82
2023/06/26 10:19:41;;;;;;;0.10;0.10;;;;;;;30.57;98.22;101602.03;10371107;28;20092;-83
2023/06/26 10:24:45;;;;;;;0.30;0.10;;;;;;;30.63;95.04;101596.44;10372101;28;20072;-84
2023/06/26 10:29:54;;;;;;;0.00;0.00;;;;;;;30.59;91.91;101600.16;10377542;28;20045;-83
2023/06/26 10:34:56;;;;;;;0.00;0.00;;;;;;;30.12;91.21;101616.53;10369997;28;20125;-83
2023/06/26 10:39:59;;;;;;;0.00;0.00;;;;;;;30.25;87.49;101616.78;10366583;28;20112;-85
2023/06/26 10:45:14;;;;;;;0.20;0.00;;;;;;;30.12;89.84;101611.22;10380196;28;20053;-82
2023/06/26 10:50:24;;;;;;;0.40;0.15;;;;;;;31.66;91.37;101620.69;10367568;28;20046;-84
2023/06/26 10:55:29;;;;;;;0.00;0.00;;;;;;;30.16;91.14;101636.69;10372196;28;20128;-84
2023/06/26 11:00:30;;;;;;;0.00;0.00;;;;;;;30.02;94.60;101643.50;10364666;28;20046;-84
2023/06/26 11:05:33;;;;;;;0.00;0.00;;;;;;;28.86;92.75;101650.03;10371831;28;20042;-83
2023/06/26 11:10:52;;;;;;;0.10;0.10;;;;;;;29.50;89.94;101645.72;10375316;28;20050;-83
2023/06/26 11:15:56;;;;;;;0.00;0.00;;;;;;;29.89;90.46;101658.22;10359218;28;20452;-84
2023/06/26 11:21:09;;;;;;;0.28;0.28;;;;;;;30.25;95.26;101649.56;10378423;28;20042;-84
2023/06/26 11:26:14;;;;;;;0.00;0.00;;;;;;;30.53;90.05;101648.31;10368236;28;20107;-85
2023/06/26 11:31:32;;;;;;;0.70;0.35;;;;;;;29.62;95.38;101671.75;10373622;28;20413;-86
2023/06/26 11:36:36;;;;;;;0.08;0.03;;;;;;;29.76;95.40;101672.00;10368388;28;20045;-84
2023/06/26 11:41:39;;;;;;;0.25;0.10;;;;;;;29.22;88.41;101673.38;10368310;28;20059;-84
2023/06/26 11:46:42;;;;;;;0.00;0.00;;;;;;;30.05;87.36;101683.19;10370865;28;20100;-86
2023/06/26 11:51:46;;;;;;;0.03;0.03;;;;;;;30.61;93.31;101693.16;10369608;28;20072;-85
2023/06/26 11:56:59;;;;;;;0.10;0.10;;;;;;;29.40;89.78;101701.84;10357018;28;20052;-83
2023/06/26 12:02:04;;;;;;;0.70;0.20;;;;;;;28.67;90.34;101711.72;10376595;28;20120;-81
2023/06/26 12:07:08;;;;;;;0.10;0.10;;;;;;;28.29;87.35;101729.88;10365268;28;20045;-82
2023/06/26 12:12:11;;;;;;;0.00;0.00;;;;;;;28.79;90.53;101729.84;10379926;28;20070;-83
2023/06/26 12:17:14;;;;;;;0.65;0.45;;;;;;;28.16;89.00;101718.84;10376899;28;20046;-82
2023/06/26 12:22:17;;;;;;;0.00;0.00;;;;;;;29.38;91.61;101721.41;10376981;28;20558;-84
2023/06/26 12:27:19;;;;;;;0.10;0.10;;;;;;;29.33;88.62;101729.56;10366565;28;20076;-83
2023/06/26 12:32:27;;;;;;;0.20;0.08;;;;;;;29.85;89.14;101725.66;10371105;28;20093;-82
2023/06/26 12:37:40;;;;;;;1.25;0.20;;;;;;;29.82;86.65;101736.44;10366585;28;20593;-81
2023/06/26 12:42:41;;;;;;;0.00;0.00;;;;;;;28.93;86.97;101741.72;10368825;28;20046;-85
2023/06/26 12:47:43;;;;;;;0.20;0.15;;;;;;;28.63;82.91;101744.56;10379563;28;20038;-83
2023/06/26 12:52:45;;;;;;;0.10;0.10;;;;;;;28.78;85.86;101751.13;10376319;28;20137;-83
2023/06/26 12:57:46;;;;;;;0.00;0.00;;;;;;;30.32;85.15;101745.81;10384799;28;20044;-87
2023/06/26 13:02:48;;;;;;;0.10;0.10;;;;;;;29.85;83.03;101741.59;10377746;28;20151;-83
2023/06/26 13:07:50;;;;;;;0.45;0.45;;;;;;;29.48;83.82;101733.41;10385731;28;20062;-84
2023/06/26 13:12:51;;;;;;;0.00;0.00;;;;;;;28.91;80.79;101743.56;10379165;28;20042;-83
2023/06/26 13:17:53;;;;;;;0.00;0.00;;;;;;;29.32;79.63;101749.06;10376224;28;20084;-84
2023/06/26 13:22:55;;;;;;;1.08;0.40;;;;;;;29.33;80.05;101753.44;10372868;28;20064;-83
2023/06/26 13:27:57;;;;;;;0.00;0.00;;;;;;;28.86;79.58;101761.41;10367544;28;20053;-83
2023/06/26 13:32:58;;;;;;;0.00;0.00;;;;;;;28.44;81.34;101755.84;10352617;28;20432;-83
2023/06/26 13:38:00;;;;;;;0.00;0.00;;;;;;;29.18;83.23;101756.66;10365786;28;20505;-84
2023/06/26 13:43:03;;;;;;;0.10;0.10;;;;;;;28.76;82.23;101766.19;10379448;28;20042;-84
2023/06/26 13:48:05;;;;;;;0.63;0.10;;;;;;;28.15;83.29;101765.69;10371349;28;20447;-87
2023/06/26 13:53:07;;;;;;;0.32;0.28;;;;;;;27.96;77.11;101776.00;10377262;28;20100;-84
2023/06/26 13:58:09;;;;;;;0.08;0.00;;;;;;;29.00;80.04;101766.22;10379353;28;20046;-83
2023/06/26 14:03:10;;;;;;;0.10;0.00;;;;;;;29.98;84.93;101758.78;10375859;28;20460;-90
2023/06/26 14:08:12;;;;;;;0.05;0.05;;;;;;;29.33;81.95;101777.31;10362248;28;20038;-84
2023/06/26 14:13:15;;;;;;;0.00;0.00;;;;;;;28.76;79.75;101776.81;10383003;28;20048;-89
2023/06/26 14:18:17;;;;;;;0.00;0.00;;;;;;;29.14;79.27;101782.47;10379852;28;20037;-85
2023/06/26 14:23:19;;;;;;;0.00;0.00;;;;;;;29.22;81.44;101790.13;10372242;28;20061;-88
2023/06/26 14:28:20;;;;;;;0.20;0.00;;;;;;;29.31;78.71;101783.63;10349913;28;20081;-83
2023/06/26 14:33:22;;;;;;;0.00;0.00;;;;;;;29.13;77.46;101794.88;10366045;28;20045;-84
2023/06/26 14:38:24;;;;;;;0.00;0.00;;;;;;;28.67;79.96;101799.19;10370925;28;20041;-83
2023/06/26 14:43:25;;;;;;;0.22;0.13;;;;;;;28.84;81.96;101801.25;10367268;28;20575;-84
2023/06/26 14:48:27;;;;;;;0.00;0.00;;;;;;;29.30;83.54;101809.28;10382074;28;20850;-83
2023/06/26 14:53:31;;;;;;;0.00;0.00;;;;;;;29.08;82.45;101820.69;10372263;28;20432;-82
2023/06/26 14:58:32;;;;;;;0.00;0.00;;;;;;;28.51;80.71;101812.16;10378867;28;20053;-85
2023/06/26 15:03:34;;;;;;;0.00;0.00;;;;;;;28.20;84.44;101820.28;10379831;28;20067;-82
2023/06/26 15:08:36;;;;;;;0.00;0.00;;;;;;;29.11;81.82;101804.66;10381619;28;20050;-83
2023/06/26 15:13:37;;;;;;;0.00;0.00;;;;;;;29.62;80.22;101816.91;10382985;28;20045;-82
2023/06/26 15:18:40;;;;;;;0.20;0.20;;;;;;;28.52;78.31;101811.19;10385412;28;20096;-83
2023/06/26 15:23:41;;;;;;;0.00;0.00;;;;;;;28.57;81.36;101813.69;10378550;28;20049;-84
2023/06/26 15:28:43;;;;;;;0.00;0.00;;;;;;;28.21;79.20;101816.72;10382500;28;20176;-84
2023/06/26 15:33:45;;;;;;;0.35;0.00;;;;;;;28.31;79.13;101820.78;10395791;28;20088;-81
2023/06/26 15:38:46;;;;;;;0.00;0.00;;;;;;;28.12;82.47;101820.53;10426211;22;20049;-82
2023/06/26 15:43:48;;;;;;;0.00;0.00;;;;;;;28.67;77.70;101819.56;10406762;28;20045;-80
2023/06/26 15:48:50;;;;;;;0.00;0.00;;;;;;;28.52;84.84;101831.56;10401019;28;20550;-80
2023/06/26 15:53:51;;;;;;;0.05;0.05;;;;;;;27.42;87.12;101833.31;10397554;28;20049;-80
2023/06/26 15:58:53;;;;;;;0.00;0.00;;;;;;;27.91;89.35;101835.31;10406661;28;20042;-82
2023/06/26 16:03:54;;;;;;;0.35;0.10;;;;;;;27.68;89.93;101834.28;10378530;28;20054;-79
2023/06/26 16:08:56;;;;;;;0.00;0.00;;;;;;;28.38;86.38;101834.69;10404489;28;20049;-80
2023/06/26 16:13:58;;;;;;;0.00;0.00;;;;;;;28.09;88.25;101829.47;10416705;28;20037;-79
2023/06/26 16:18:59;;;;;;;0.00;0.00;;;;;;;27.81;88.40;101840.91;10393955;28;20599;-79
2023/06/26 16:24:01;;;;;;;0.32;0.10;;;;;;;27.12;86.56;101838.56;10383385;28;20046;-80
2023/06/26 16:29:03;;;;;;;0.10;0.10;;;;;;;28.09;87.72;101834.75;10415519;28;20049;-80
2023/06/26 16:34:04;;;;;;;0.00;0.00;;;;;;;27.63;87.06;101833.56;10399638;28;20080;-80
2023/06/26 16:39:06;;;;;;;0.00;0.00;;;;;;;27.98;90.16;101827.16;10405949;28;20053;-82
2023/06/26 16:44:08;;;;;;;0.10;0.10;;;;;;;27.18;88.19;101838.38;10418124;28;20034;-82
2023/06/26 16:49:09;;;;;;;0.00;0.00;;;;;;;27.40;88.86;101841.25;10385214;28;20049;-82
2023/06/26 16:54:11;;;;;;;0.00;0.00;;;;;;;27.72;85.41;101830.63;10396766;28;20057;-81
2023/06/26 16:59:12;;;;;;;0.00;0.00;;;;;;;27.84;87.46;101846.13;10409102;28;20034;-80
2023/06/26 17:04:14;;;;;;;0.00;0.00;;;;;;;27.37;86.35;101851.06;10411893;28;20056;-80
2023/06/26 17:09:15;;;;;;;0.13;0.10;;;;;;;27.02;86.20;101850.31;10394675;28;20050;-80
2023/06/26 17:14:17;;;;;;;0.00;0.00;;;;;;;27.65;85.10;101851.13;10412780;28;20041;-80
2023/06/26 17:19:18;;;;;;;0.00;0.00;;;;;;;27.31;84.12;101861.81;10379863;28;20095;-81
2023/06/26 17:24:20;;;;;;;0.00;0.00;;;;;;;27.40;85.83;101866.84;10379346;28;20056;-80
2023/06/26 17:29:21;;;;;;;0.30;0.00;;;;;;;27.30;83.82;101870.66;10405228;28;20107;-80
2023/06/26 17:34:23;;;;;;;0.00;0.00;;;;;;;27.14;82.33;101867.59;10410274;28;20053;-81
2023/06/26 17:39:26;;;;;;;0.00;0.00;;;;;;;27.29;85.05;101874.25;10405811;28;20045;-80
2023/06/26 17:44:28;;;;;;;0.00;0.00;;;;;;;27.36;83.97;101870.50;10371620;28;20115;-80
2023/06/26 17:49:30;;;;;;;0.00;0.00;;;;;;;27.11;86.67;101881.78;10392467;28;20106;-80
2023/06/26 17:54:32;;;;;;;0.10;0.05;;;;;;;27.58;86.22;101883.13;10391872;28;20480;-80
2023/06/26 17:59:34;;;;;;;0.13;0.00;;;;;;;27.07;86.73;101883.66;10394793;28;20045;-80
2023/06/26 18:04:36;;;;;;;0.08;0.05;;;;;;;26.68;87.82;101893.50;10392939;28;20046;-80
2023/06/26 18:09:37;;;;;;;0.28;0.22;;;;;;;26.59;86.29;101895.47;10400735;28;20038;-81
2023/06/26 18:14:39;;;;;;;0.10;0.10;;;;;;;26.82;87.45;101901.97;10384377;28;20050;-80
2023/06/26 18:19:41;;;;;;;0.10;0.10;;;;;;;26.36;88.56;101897.84;10401935;28;20574;-81
2023/06/26 18:24:42;;;;;;;0.00;0.00;;;;;;;26.26;88.45;101913.91;10390082;28;20100;-80
2023/06/26 18:29:44;;;;;;;0.08;0.08;;;;;;;25.86;88.16;101913.91;10403755;28;20041;-81
2023/06/26 18:34:45;;;;;;;0.10;0.10;;;;;;;25.57;91.50;101918.94;10403708;28;20463;-80
2023/06/26 18:39:47;;;;;;;0.00;0.00;;;;;;;26.47;89.37;101919.59;10404378;28;20037;-80
2023/06/26 18:44:49;;;;;;;0.25;0.10;;;;;;;25.95;90.97;101930.41;10419591;28;20416;-81
2023/06/26 18:49:51;;;;;;;0.00;0.00;;;;;;;25.69;91.18;101922.22;10421155;28;20530;-80
2023/06/26 18:54:53;;;;;;;0.00;0.00;;;;;;;25.91;89.07;101935.81;10404622;28;20112;-80
2023/06/26 18:59:54;;;;;;;0.00;0.00;;;;;;;26.31;89.12;101923.50;10388148;28;20053;-79
2023/06/26 19:04:56;;;;;;;0.00;0.00;;;;;;;25.74;90.13;101930.88;10402584;28;20053;-79
2023/06/26 19:09:58;;;;;;;0.00;0.00;;;;;;;25.48;90.50;101934.97;10422057;28;20064;-79
2023/06/26 19:15:01;;;;;;;0.00;0.00;;;;;;;25.24;91.06;101941.56;10422490;28;20041;-80
2023/06/26 19:20:04;;;;;;;0.13;0.13;;;;;;;25.62;93.05;101943.47;10403655;28;20419;-79
2023/06/26 19:25:06;;;;;;;0.00;0.00;;;;;;;25.23;92.45;101953.88;10416232;28;20049;-80
2023/06/26 19:30:08;;;;;;;0.00;0.00;;;;;;;25.56;93.72;101948.88;10429765;28;20408;-79
2023/06/26 19:35:10;;;;;;;0.00;0.00;;;;;;;25.44;91.31;101954.38;10404597;28;20526;-79
2023/06/26 19:40:11;;;;;;;0.00;0.00;;;;;;;25.84;90.14;101966.75;10422002;28;20115;-79
2023/06/26 19:45:13;;;;;;;0.00;0.00;;;;;;;25.46;90.96;101969.28;10416686;28;20480;-79
2023/06/26 19:50:16;;;;;;;0.00;0.00;;;;;;;25.17;93.31;101967.16;10396702;28;20041;-79
2023/06/26 19:55:17;;;;;;;0.00;0.00;;;;;;;25.21;90.98;101974.09;10396305;28;20049;-80
2023/06/26 20:00:19;;;;;;;0.00;0.00;;;;;;;25.05;90.00;101977.94;10397847;28;20045;-79
2023/06/26 20:05:20;;;;;;;0.00;0.00;;;;;;;24.76;91.48;101987.22;10408334;28;20064;-79
2023/06/26 20:10:22;;;;;;;0.00;0.00;;;;;;;24.95;92.25;101983.38;10394695;28;20085;-79
2023/06/26 20:15:23;;;;;;;0.30;0.10;;;;;;;25.12;91.53;101995.41;10395248;28;20139;-79
2023/06/26 20:20:25;;;;;;;0.00;0.00;;;;;;;25.34;90.57;101994.09;10396505;28;20056;-80
2023/06/26 20:25:27;;;;;;;0.00;0.00;;;;;;;24.98;96.57;101996.47;10408587;28;20463;-79
2023/06/26 20:30:29;;;;;;;0.00;0.00;;;;;;;24.72;100.00;102002.22;10403290;28;20459;-79
2023/06/26 20:35:30;;;;;;;0.00;0.00;;;;;;;24.45;98.94;102012.22;10400882;28;20049;-79
2023/06/26 20:40:32;;;;;;;0.00;0.00;;;;;;;24.30;97.08;101997.53;10395731;28;20049;-79
2023/06/26 20:45:35;;;;;;;0.00;0.00;;;;;;;24.15;100.00;102005.66;10413075;28;20060;-79
2023/06/26 20:50:37;;;;;;;0.00;0.00;;;;;;;24.03;100.00;102007.53;10400058;28;20072;-80
2023/06/26 20:55:39;;;;;;;0.00;0.00;;;;;;;23.94;100.00;102012.91;10418231;28;20048;-80
2023/06/26 21:00:41;;;;;;;0.00;0.00;;;;;;;23.94;100.00;102012.06;10396079;28;20535;-80
2023/06/26 21:05:42;;;;;;;0.00;0.00;;;;;;;23.81;100.00;102012.19;10405872;28;20046;-79
2023/06/26 21:10:44;;;;;;;0.25;0.25;;;;;;;23.85;100.00;102019.13;10399084;28;20407;-80
2023/06/26 21:15:45;;;;;;;0.20;0.10;;;;;;;23.51;100.00;102023.91;10398006;28;20057;-79
2023/06/26 21:20:47;;;;;;;0.00;0.00;;;;;;;23.16;100.00;102022.47;10409097;28;20101;-79
2023/06/26 21:25:48;;;;;;;0.00;0.00;;;;;;;23.55;100.00;102021.22;10403995;28;20664;-79
2023/06/26 21:30:50;;;;;;;0.00;0.00;;;;;;;23.43;100.00;102019.59;10410384;28;20052;-79
2023/06/26 21:35:52;;;;;;;0.00;0.00;;;;;;;23.42;100.00;102020.47;10418355;22;20478;-82
2023/06/26 21:40:54;;;;;;;0.00;0.00;;;;;;;23.22;100.00;102017.19;10396309;28;20144;-82
2023/06/26 21:45:56;;;;;;;0.08;0.08;;;;;;;23.27;100.00;102015.41;10408514;28;20508;-82
2023/06/26 21:50:57;;;;;;;0.00;0.00;;;;;;;22.90;100.00;102026.16;10412739;28;20045;-82
2023/06/26 21:55:59;;;;;;;0.15;0.10;;;;;;;22.59;100.00;102026.41;10427278;28;20053;-82
2023/06/26 22:01:01;;;;;;;0.00;0.00;;;;;;;22.86;100.00;102024.47;10414553;28;20052;-82
2023/06/26 22:06:03;;;;;;;0.10;0.10;;;;;;;22.88;100.00;102012.19;10409883;28;20107;-82
2023/06/26 22:11:05;;;;;;;0.00;0.00;;;;;;;22.81;100.00;102012.25;10420328;28;20045;-82
2023/06/26 22:16:07;;;;;;;0.00;0.00;;;;;;;22.32;100.00;102023.91;10433083;28;20049;-82
2023/06/26 22:21:08;;;;;;;0.00;0.00;;;;;;;22.33;100.00;102032.63;10393653;28;20050;-82
2023/06/26 22:26:10;;;;;;;0.00;0.00;;;;;;;22.24;100.00;102028.31;10426164;28;20445;-82
2023/06/26 22:31:12;;;;;;;0.10;0.10;;;;;;;21.64;100.00;102028.53;10408875;28;20049;-82
2023/06/26 22:36:13;;;;;;;0.10;0.03;;;;;;;21.65;100.00;102017.16;10426145;28;20045;-82
2023/06/26 22:41:15;;;;;;;0.00;0.00;;;;;;;21.83;100.00;102014.50;10409919;28;20037;-82
2023/06/26 22:46:17;;;;;;;0.00;0.00;;;;;;;22.18;100.00;102010.84;10405731;28;20063;-82
2023/06/26 22:51:18;;;;;;;0.10;0.05;;;;;;;22.54;100.00;102015.03;10409852;28;20048;-82
2023/06/26 22:56:20;;;;;;;0.10;0.10;;;;;;;21.95;100.00;102007.44;10426093;28;20049;-82
2023/06/26 23:01:22;;;;;;;0.00;0.00;;;;;;;21.58;100.00;101997.06;10393257;28;20056;-82